createdAt,value
2022-12-14T00:00:05.195Z,-4.30
2022-12-14T00:02:33.799Z,-4.30
2022-12-14T00:05:02.844Z,-4.30
2022-12-14T00:07:31.574Z,-4.30
2022-12-14T00:10:00.125Z,-4.40
2022-12-14T00:12:28.655Z,-4.30
2022-12-14T00:14:57.705Z,-4.30
2022-12-14T00:17:26.195Z,-4.30
2022-12-14T00:19:57.547Z,-4.40
2022-12-14T00:22:26.227Z,-4.30
2022-12-14T00:24:54.808Z,-4.30
2022-12-14T00:27:23.507Z,-4.30
2022-12-14T00:29:55.002Z,-4.30
2022-12-14T00:32:24.026Z,-4.30
2022-12-14T00:34:52.588Z,-4.30
2022-12-14T00:37:22.673Z,-4.30
2022-12-14T00:39:51.293Z,-4.30
2022-12-14T00:42:19.819Z,-4.40
2022-12-14T00:44:50.147Z,-4.30
2022-12-14T00:47:18.720Z,-4.40
2022-12-14T00:49:48.664Z,-4.30
2022-12-14T00:52:17.509Z,-4.40
2022-12-14T00:54:46.021Z,-4.40
2022-12-14T00:57:16.226Z,-4.40
2022-12-14T00:59:44.810Z,-4.40
2022-12-14T01:02:15.047Z,-4.50
2022-12-14T01:04:44.820Z,-4.50
2022-12-14T01:07:13.438Z,-4.50
2022-12-14T01:09:42.025Z,-4.50
2022-12-14T01:12:10.600Z,-4.50
2022-12-14T01:14:39.155Z,-4.50
2022-12-14T01:17:07.601Z,-4.50
2022-12-14T01:19:36.088Z,-4.50
2022-12-14T01:22:04.604Z,-4.50
2022-12-14T01:24:33.159Z,-4.50
2022-12-14T01:27:01.753Z,-4.50
2022-12-14T01:29:31.147Z,-4.50
2022-12-14T01:31:59.737Z,-4.50
2022-12-14T01:34:29.079Z,-4.50
2022-12-14T01:36:57.673Z,-4.50
2022-12-14T01:39:26.301Z,-4.50
2022-12-14T01:41:54.841Z,-4.60
2022-12-14T01:44:26.728Z,-4.60
2022-12-14T01:47:01.230Z,-4.60
2022-12-14T01:49:32.768Z,-4.60
2022-12-14T01:52:38.845Z,-4.60
2022-12-14T01:55:10.527Z,-4.60
2022-12-14T01:57:44.863Z,-4.70
2022-12-14T02:00:14.717Z,-4.60
2022-12-14T02:02:49.466Z,-4.60
2022-12-14T02:05:20.624Z,-4.60
2022-12-14T02:07:51.669Z,-4.60
2022-12-14T02:10:21.447Z,-4.60
2022-12-14T02:12:52.748Z,-4.60
2022-12-14T02:15:22.823Z,-4.60
2022-12-14T02:17:52.299Z,-4.60
2022-12-14T02:20:22.636Z,-4.60
2022-12-14T02:23:00.041Z,-4.60
2022-12-14T02:25:36.094Z,-4.50
2022-12-14T02:28:16.251Z,-4.50
2022-12-14T02:30:47.869Z,-4.60
2022-12-14T02:33:43.146Z,-4.60
2022-12-14T02:36:20.997Z,-4.70
2022-12-14T02:39:12.122Z,-4.80
2022-12-14T02:41:53.128Z,-4.80
2022-12-14T02:44:42.789Z,-4.80
2022-12-14T02:47:32.424Z,-4.80
2022-12-14T02:50:20.154Z,-4.90
2022-12-14T02:53:00.776Z,-4.90
2022-12-14T02:55:41.595Z,-5.00
2022-12-14T02:58:22.034Z,-5.00
2022-12-14T03:00:52.134Z,-5.10
2022-12-14T03:03:20.746Z,-5.10
2022-12-14T03:06:04.957Z,-5.10
2022-12-14T03:08:36.276Z,-5.10
2022-12-14T03:11:11.176Z,-5.10
2022-12-14T03:13:47.130Z,-5.10
2022-12-14T03:16:26.719Z,-5.10
2022-12-14T03:19:10.448Z,-5.10
2022-12-14T03:21:41.872Z,-5.10
2022-12-14T03:24:13.355Z,-5.10
2022-12-14T03:26:47.522Z,-5.00
2022-12-14T03:29:18.908Z,-4.90
2022-12-14T03:31:59.389Z,-4.80
2022-12-14T03:34:31.484Z,-4.80
2022-12-14T03:37:12.116Z,-4.70
2022-12-14T03:39:43.756Z,-4.80
2022-12-14T03:42:29.766Z,-4.70
2022-12-14T03:45:07.073Z,-4.80
2022-12-14T03:48:08.956Z,-4.70
2022-12-14T03:50:46.340Z,-4.70
2022-12-14T03:53:20.633Z,-4.70
2022-12-14T03:56:07.059Z,-4.70
2022-12-14T03:58:41.363Z,-4.80
2022-12-14T04:01:22.086Z,-4.80
2022-12-14T04:03:59.309Z,-4.80
2022-12-14T04:06:47.564Z,-4.80
2022-12-14T04:09:24.739Z,-4.80
2022-12-14T04:12:13.820Z,-4.90
2022-12-14T04:15:08.000Z,-4.90
2022-12-14T04:17:57.082Z,-4.90
2022-12-14T04:20:31.414Z,-4.80
2022-12-14T04:23:10.958Z,-4.90
2022-12-14T04:26:00.794Z,-4.80
2022-12-14T04:28:59.819Z,-4.90
2022-12-14T04:31:31.464Z,-4.80
2022-12-14T04:34:02.787Z,-4.80
2022-12-14T04:36:49.067Z,-4.80
2022-12-14T04:39:20.695Z,-4.70
2022-12-14T04:41:52.650Z,-4.70
2022-12-14T04:44:24.779Z,-4.70
2022-12-14T04:46:54.968Z,-4.80
2022-12-14T04:49:41.647Z,-4.70
2022-12-14T04:52:19.258Z,-4.70
2022-12-14T04:54:50.985Z,-4.60
2022-12-14T04:57:31.521Z,-4.60
2022-12-14T05:00:01.121Z,-4.60
2022-12-14T05:02:38.633Z,-4.60
2022-12-14T05:05:10.340Z,-4.60
2022-12-14T05:07:50.205Z,-4.50
2022-12-14T05:10:44.243Z,-4.50
2022-12-14T05:13:24.742Z,-4.50
2022-12-14T05:15:56.962Z,-4.60
2022-12-14T05:18:25.604Z,-4.60
2022-12-14T05:20:54.197Z,-4.60
2022-12-14T05:23:22.891Z,-4.50
2022-12-14T05:25:51.969Z,-4.60
2022-12-14T05:28:20.540Z,-4.60
2022-12-14T05:30:49.356Z,-4.60
2022-12-14T05:33:21.523Z,-4.50
2022-12-14T05:35:50.219Z,-4.60
2022-12-14T05:38:19.209Z,-4.60
2022-12-14T05:40:47.699Z,-4.50
2022-12-14T05:43:16.310Z,-4.60
2022-12-14T05:45:44.910Z,-4.60
2022-12-14T05:48:13.425Z,-4.60
2022-12-14T05:50:42.032Z,-4.60
2022-12-14T05:53:11.472Z,-4.60
2022-12-14T05:55:40.033Z,-4.50
2022-12-14T05:58:08.673Z,-4.50
2022-12-14T06:00:37.168Z,-4.50
2022-12-14T06:03:05.770Z,-4.50
2022-12-14T06:05:36.356Z,-4.50
2022-12-14T06:08:05.152Z,-4.50
2022-12-14T06:10:33.863Z,-4.50
2022-12-14T06:13:02.726Z,-4.60
2022-12-14T06:15:34.119Z,-4.60
2022-12-14T06:18:01.545Z,-4.50
2022-12-14T06:20:30.029Z,-4.50
2022-12-14T06:22:58.563Z,-4.50
2022-12-14T06:25:29.689Z,-4.50
2022-12-14T06:27:58.246Z,-4.50
2022-12-14T06:30:28.755Z,-4.40
2022-12-14T06:32:58.220Z,-4.50
2022-12-14T06:35:26.812Z,-4.50
2022-12-14T06:37:56.485Z,-4.40
2022-12-14T06:40:24.980Z,-4.50
2022-12-14T06:42:53.560Z,-4.40
2022-12-14T06:45:22.963Z,-4.40
2022-12-14T06:47:51.562Z,-4.50
2022-12-14T06:50:31.085Z,-4.60
2022-12-14T06:53:02.961Z,-4.60
2022-12-14T06:55:34.532Z,-4.60
2022-12-14T06:58:04.277Z,-4.60
2022-12-14T07:00:34.964Z,-4.60
2022-12-14T07:03:04.827Z,-4.60
2022-12-14T07:05:36.265Z,-4.50
2022-12-14T07:08:05.388Z,-4.50
2022-12-14T07:10:36.851Z,-4.50
2022-12-14T07:13:05.371Z,-4.50
2022-12-14T07:15:36.555Z,-4.60
2022-12-14T07:18:05.580Z,-4.60
2022-12-14T07:20:37.296Z,-4.60
2022-12-14T07:23:05.877Z,-4.60
2022-12-14T07:25:35.956Z,-4.60
2022-12-14T07:28:04.505Z,-4.60
2022-12-14T07:30:34.610Z,-4.50
2022-12-14T07:33:03.135Z,-4.50
2022-12-14T07:35:33.240Z,-4.50
2022-12-14T07:38:02.055Z,-4.40
2022-12-14T07:40:33.829Z,-4.30
2022-12-14T07:43:03.403Z,-4.30
2022-12-14T07:45:32.204Z,-4.30
2022-12-14T07:48:02.804Z,-4.30
2022-12-14T07:50:33.856Z,-4.30
2022-12-14T07:53:02.483Z,-4.30
2022-12-14T07:55:37.067Z,-4.30
2022-12-14T07:58:05.558Z,-4.40
2022-12-14T08:00:34.288Z,-4.40
2022-12-14T08:03:05.332Z,-4.30
2022-12-14T08:05:35.548Z,-4.30
2022-12-14T08:08:05.544Z,-4.30
2022-12-14T08:10:41.730Z,-4.20
2022-12-14T08:13:07.566Z,-4.20
2022-12-14T08:15:38.868Z,-4.10
2022-12-14T08:18:10.960Z,-4.10
2022-12-14T08:20:39.434Z,-4.10
2022-12-14T08:23:12.347Z,-4.00
2022-12-14T08:25:40.901Z,-4.00
2022-12-14T08:28:14.731Z,-3.90
2022-12-14T08:30:43.262Z,-3.90
2022-12-14T08:33:17.253Z,-3.90
2022-12-14T08:35:46.074Z,-3.80
2022-12-14T08:38:16.865Z,-3.80
2022-12-14T08:40:50.597Z,-3.70
2022-12-14T08:43:24.825Z,-3.60
2022-12-14T08:45:51.555Z,-3.60
2022-12-14T08:48:20.036Z,-3.50
2022-12-14T08:50:53.213Z,-3.50
2022-12-14T08:53:22.091Z,-3.30
2022-12-14T08:55:54.652Z,-3.20
2022-12-14T08:58:23.184Z,-3.10
2022-12-14T09:00:53.526Z,-3.10
2022-12-14T09:03:23.781Z,-3.00
2022-12-14T09:05:55.376Z,-3.00
2022-12-14T09:08:25.151Z,-2.90
2022-12-14T09:10:55.180Z,-2.90
2022-12-14T09:13:23.740Z,-2.80
2022-12-14T09:16:00.302Z,-2.80
2022-12-14T09:18:33.009Z,-2.80
2022-12-14T09:21:02.275Z,-2.70
2022-12-14T09:23:32.622Z,-2.70
2022-12-14T09:26:18.312Z,-2.70
2022-12-14T09:28:49.678Z,-2.80
2022-12-14T09:31:20.682Z,-2.90
2022-12-14T09:33:50.649Z,-2.90
2022-12-14T09:36:22.319Z,-2.90
2022-12-14T09:38:52.801Z,-2.80
2022-12-14T09:41:27.338Z,-2.90
2022-12-14T09:44:09.622Z,-2.80
2022-12-14T09:46:53.237Z,-2.80
2022-12-14T09:49:27.685Z,-2.60
2022-12-14T09:51:58.866Z,-2.60
2022-12-14T09:54:30.584Z,-2.60
2022-12-14T09:57:18.571Z,-2.50
2022-12-14T09:59:47.123Z,-2.50
2022-12-14T10:02:32.349Z,-2.50
2022-12-14T10:05:25.143Z,-2.50
2022-12-14T10:08:08.398Z,-2.40
2022-12-14T10:10:54.646Z,-2.30
2022-12-14T10:13:44.428Z,-2.40
2022-12-14T10:16:27.961Z,-2.20
2022-12-14T10:19:03.190Z,-2.20
2022-12-14T10:21:35.129Z,-2.00
2022-12-14T10:24:06.069Z,-1.80
2022-12-14T10:26:43.440Z,-1.90
2022-12-14T10:29:32.515Z,-2.00
2022-12-14T10:32:23.316Z,-1.70
2022-12-14T10:34:52.403Z,-1.80
2022-12-14T10:37:29.785Z,-1.80
2022-12-14T10:40:22.133Z,-1.80
2022-12-14T10:43:07.549Z,-1.80
2022-12-14T10:45:47.822Z,-1.90
2022-12-14T10:48:35.178Z,-1.70
2022-12-14T10:51:12.816Z,-1.50
2022-12-14T10:53:44.417Z,-1.50
2022-12-14T10:56:21.697Z,-1.50
2022-12-14T10:59:14.132Z,-1.60
2022-12-14T11:01:43.372Z,-1.60
2022-12-14T11:04:24.000Z,-1.30
2022-12-14T11:06:52.659Z,-1.20
2022-12-14T11:09:23.585Z,-0.90
2022-12-14T11:12:01.041Z,-0.90
2022-12-14T11:14:29.856Z,-1.00
2022-12-14T11:16:58.792Z,-1.00
2022-12-14T11:19:29.091Z,-1.10
2022-12-14T11:22:18.682Z,-0.90
2022-12-14T11:24:49.166Z,-0.60
2022-12-14T11:27:22.361Z,-0.40
2022-12-14T11:29:52.127Z,-0.10
2022-12-14T11:32:26.514Z,0.10
2022-12-14T11:34:58.494Z,-0.20
2022-12-14T11:37:34.145Z,-0.20
2022-12-14T11:40:05.299Z,-0.10
2022-12-14T11:42:34.260Z,0.00
2022-12-14T11:45:22.545Z,-0.10
2022-12-14T11:48:10.750Z,-0.20
2022-12-14T11:50:39.726Z,-0.10
2022-12-14T11:53:14.494Z,0.30
2022-12-14T11:55:54.970Z,0.10
2022-12-14T11:58:27.531Z,0.00
2022-12-14T12:01:02.212Z,0.20
2022-12-14T12:03:37.068Z,0.20
2022-12-14T12:06:11.976Z,0.20
2022-12-14T12:08:42.713Z,0.10
2022-12-14T12:11:21.942Z,0.20
2022-12-14T12:13:59.315Z,0.30
2022-12-14T12:16:29.685Z,0.60
2022-12-14T12:19:28.997Z,0.40
2022-12-14T12:21:59.567Z,0.80
2022-12-14T12:25:01.017Z,1.20
2022-12-14T12:27:13.459Z,0.90
2022-12-14T12:29:50.741Z,1.40
2022-12-14T12:32:24.970Z,1.80
2022-12-14T12:35:12.871Z,2.10
2022-12-14T12:37:50.131Z,2.00
2022-12-14T12:40:21.727Z,1.70
2022-12-14T12:42:56.133Z,1.60
2022-12-14T12:45:27.668Z,1.40
2022-12-14T12:48:02.032Z,1.00
2022-12-14T12:50:33.578Z,1.70
2022-12-14T12:53:05.147Z,3.30
2022-12-14T12:55:46.985Z,5.00
2022-12-14T12:58:29.768Z,6.60
2022-12-14T13:01:07.689Z,7.00
2022-12-14T13:03:46.469Z,7.30
2022-12-14T13:06:21.411Z,7.50
2022-12-14T13:08:52.991Z,7.90
2022-12-14T13:11:26.875Z,9.10
2022-12-14T13:14:00.708Z,10.10
2022-12-14T13:16:35.028Z,10.40
2022-12-14T13:19:40.642Z,8.60
2022-12-14T13:21:43.795Z,8.50
2022-12-14T13:24:19.902Z,7.70
2022-12-14T13:27:17.697Z,8.50
2022-12-14T13:29:59.155Z,8.10
2022-12-14T13:32:53.093Z,9.20
2022-12-14T13:35:36.561Z,8.60
2022-12-14T13:38:29.256Z,8.50
2022-12-14T13:41:09.793Z,9.80
2022-12-14T13:44:15.838Z,8.60
2022-12-14T13:46:44.780Z,8.10
2022-12-14T13:52:10.115Z,6.20
2022-12-14T13:54:40.552Z,4.10
2022-12-14T13:57:18.744Z,2.60
2022-12-14T13:59:53.074Z,2.30
2022-12-14T14:02:36.943Z,1.40
2022-12-14T14:05:19.111Z,1.20
2022-12-14T14:07:57.918Z,0.80
2022-12-14T14:10:32.456Z,0.70
2022-12-14T14:13:03.443Z,0.60
2022-12-14T14:16:03.926Z,0.20
2022-12-14T14:18:17.469Z,-0.30
2022-12-14T14:20:58.564Z,-0.30
2022-12-14T14:23:31.313Z,-0.40
2022-12-14T14:26:14.644Z,-0.50
2022-12-14T14:28:43.316Z,-0.50
2022-12-14T14:31:13.452Z,-0.70
2022-12-14T14:33:55.160Z,-0.90
2022-12-14T14:36:30.893Z,-1.00
2022-12-14T14:39:02.084Z,-1.00
2022-12-14T14:41:36.657Z,-1.30
2022-12-14T14:44:20.060Z,-1.40
2022-12-14T14:46:50.332Z,-1.60
2022-12-14T14:49:30.667Z,-1.70
2022-12-14T14:52:20.716Z,-1.70
2022-12-14T14:55:21.724Z,-1.90
2022-12-14T14:57:35.040Z,-2.10
2022-12-14T15:00:05.289Z,-2.30
2022-12-14T15:02:36.949Z,-2.30
2022-12-14T15:05:33.139Z,-2.40
2022-12-14T15:07:36.440Z,-2.40
2022-12-14T15:10:22.757Z,-2.60
2022-12-14T15:12:56.153Z,-2.80
2022-12-14T15:15:39.255Z,-2.90
2022-12-14T15:18:25.696Z,-3.00
2022-12-14T15:21:09.062Z,-2.90
2022-12-14T15:23:49.307Z,-3.00
2022-12-14T15:26:28.540Z,-3.10
2022-12-14T15:29:00.403Z,-3.00
2022-12-14T15:31:41.855Z,-3.10
2022-12-14T15:34:16.303Z,-3.30
2022-12-14T15:36:45.436Z,-3.50
2022-12-14T15:39:28.344Z,-3.60
2022-12-14T15:42:05.693Z,-3.60
2022-12-14T15:44:35.136Z,-3.60
2022-12-14T15:47:03.676Z,-3.70
2022-12-14T15:49:32.284Z,-3.80
2022-12-14T15:52:00.779Z,-3.80
2022-12-14T15:54:29.660Z,-3.90
2022-12-14T15:57:00.732Z,-3.80
2022-12-14T15:59:34.325Z,-3.60
2022-12-14T16:02:17.792Z,-3.70
2022-12-14T16:04:46.852Z,-3.40
2022-12-14T16:07:25.722Z,-3.50
2022-12-14T16:10:00.261Z,-3.60
2022-12-14T16:12:46.724Z,-3.70
2022-12-14T16:15:21.362Z,-3.80
2022-12-14T16:17:57.530Z,-3.90
2022-12-14T16:20:26.000Z,-4.00
2022-12-14T16:23:02.131Z,-4.10
2022-12-14T16:25:33.098Z,-4.30
2022-12-14T16:28:22.889Z,-4.20
2022-12-14T16:31:09.596Z,-4.20
2022-12-14T16:33:40.814Z,-4.40
2022-12-14T16:36:24.309Z,-4.60
2022-12-14T16:39:16.238Z,-4.30
2022-12-14T16:41:47.782Z,-4.00
2022-12-14T16:44:25.593Z,-3.70
2022-12-14T16:47:03.207Z,-3.90
2022-12-14T16:49:39.038Z,-4.10
2022-12-14T16:52:19.909Z,-4.30
2022-12-14T16:55:02.982Z,-4.40
2022-12-14T16:57:31.521Z,-4.70
2022-12-14T17:00:03.666Z,-4.90
2022-12-14T17:02:38.085Z,-4.80
2022-12-14T17:05:15.378Z,-4.70
2022-12-14T17:07:43.864Z,-4.50
2022-12-14T17:10:18.418Z,-4.40
2022-12-14T17:12:47.918Z,-4.30
2022-12-14T17:15:23.697Z,-4.20
2022-12-14T17:17:54.238Z,-4.10
2022-12-14T17:20:39.112Z,-4.00
2022-12-14T17:23:10.523Z,-4.20
2022-12-14T17:25:46.030Z,-4.20
2022-12-14T17:28:31.035Z,-4.20
2022-12-14T17:31:01.552Z,-4.00
2022-12-14T17:33:32.108Z,-4.00
2022-12-14T17:36:00.902Z,-4.00
2022-12-14T17:38:29.377Z,-4.00
2022-12-14T17:40:59.502Z,-4.00
2022-12-14T17:43:29.030Z,-3.90
2022-12-14T17:45:59.464Z,-3.80
2022-12-14T17:48:28.593Z,-4.00
2022-12-14T17:50:57.646Z,-4.00
2022-12-14T17:53:29.767Z,-4.00
2022-12-14T17:55:58.686Z,-3.90
2022-12-14T17:58:27.238Z,-4.00
2022-12-14T18:01:01.757Z,-4.00
2022-12-14T18:03:33.271Z,-4.00
2022-12-14T18:06:03.585Z,-3.80
2022-12-14T18:08:32.248Z,-3.60
2022-12-14T18:11:07.588Z,-3.60
2022-12-14T18:13:34.874Z,-3.60
2022-12-14T18:16:03.454Z,-3.60
2022-12-14T18:18:33.339Z,-3.60
2022-12-14T18:21:03.760Z,-3.70
2022-12-14T18:23:32.963Z,-3.70
2022-12-14T18:26:03.523Z,-3.80
2022-12-14T18:28:32.465Z,-3.80
2022-12-14T18:31:07.368Z,-4.00
2022-12-14T18:33:35.836Z,-4.10
2022-12-14T18:36:04.468Z,-4.10
2022-12-14T18:38:33.034Z,-4.00
2022-12-14T18:41:03.162Z,-3.90
2022-12-14T18:43:32.580Z,-3.80
2022-12-14T18:46:01.407Z,-3.70
2022-12-14T18:48:29.982Z,-3.90
2022-12-14T18:50:58.789Z,-3.90
2022-12-14T18:53:28.088Z,-4.10
2022-12-14T18:55:57.139Z,-4.00
2022-12-14T18:58:28.446Z,-4.10
2022-12-14T19:00:59.396Z,-4.00
2022-12-14T19:03:31.317Z,-4.10
2022-12-14T19:08:37.501Z,-4.40
2022-12-14T19:11:36.224Z,-4.60
2022-12-14T19:14:04.905Z,-4.80
2022-12-14T19:16:33.518Z,-4.90
2022-12-14T19:19:02.724Z,-4.50
2022-12-14T19:21:31.553Z,-4.30
2022-12-14T19:24:00.563Z,-4.20
2022-12-14T19:26:30.155Z,-4.10
2022-12-14T19:28:58.758Z,-4.20
2022-12-14T19:31:28.062Z,-4.00
2022-12-14T19:33:56.741Z,-4.10
2022-12-14T19:36:26.181Z,-4.30
2022-12-14T19:38:58.007Z,-4.50
2022-12-14T19:41:26.625Z,-4.60
2022-12-14T19:43:58.851Z,-4.70
2022-12-14T19:46:27.479Z,-4.60
2022-12-14T19:48:57.464Z,-4.60
2022-12-14T19:51:26.029Z,-4.50
2022-12-14T19:53:55.763Z,-4.20
2022-12-14T19:56:24.252Z,-4.20
2022-12-14T19:58:56.336Z,-4.30
2022-12-14T20:01:23.439Z,-4.30
2022-12-14T20:03:52.093Z,-4.40
2022-12-14T20:06:20.626Z,-4.40
2022-12-14T20:08:49.914Z,-4.50
2022-12-14T20:11:18.495Z,-4.40
2022-12-14T20:13:49.408Z,-4.40
2022-12-14T20:16:18.844Z,-4.60
2022-12-14T20:18:49.456Z,-4.70
2022-12-14T20:21:22.183Z,-5.20
2022-12-14T20:23:50.752Z,-5.20
2022-12-14T20:26:21.896Z,-4.70
2022-12-14T20:28:52.021Z,-4.60
2022-12-14T20:31:22.262Z,-4.60
2022-12-14T20:33:51.217Z,-4.50
2022-12-14T20:36:22.018Z,-4.50
2022-12-14T20:38:59.204Z,-4.60
2022-12-14T20:41:28.296Z,-4.60
2022-12-14T20:43:58.886Z,-4.60
2022-12-14T20:46:35.730Z,-4.70
2022-12-14T20:49:10.056Z,-4.70
2022-12-14T20:51:39.536Z,-4.50
2022-12-14T20:54:11.985Z,-4.40
2022-12-14T20:56:41.053Z,-4.50
2022-12-14T20:59:11.022Z,-4.60
2022-12-14T21:01:41.118Z,-4.60
2022-12-14T21:04:10.391Z,-4.60
2022-12-14T21:06:41.619Z,-4.50
2022-12-14T21:09:11.911Z,-4.50
2022-12-14T21:12:04.560Z,-4.50
2022-12-14T21:14:38.760Z,-4.70
2022-12-14T21:17:07.286Z,-4.60
2022-12-14T21:19:36.358Z,-4.60
2022-12-14T21:22:06.472Z,-4.80
2022-12-14T21:27:11.252Z,-4.80
2022-12-14T21:29:39.821Z,-5.10
2022-12-14T21:32:08.368Z,-5.20
2022-12-14T21:34:36.930Z,-5.30
2022-12-14T21:37:05.536Z,-5.60
2022-12-14T21:39:34.729Z,-5.70
2022-12-14T21:42:15.583Z,-5.70
2022-12-14T21:44:49.396Z,-5.30
2022-12-14T21:47:20.584Z,-5.10
2022-12-14T21:49:49.433Z,-5.00
2022-12-14T21:52:21.088Z,-5.10
2022-12-14T21:54:49.737Z,-5.10
2022-12-14T21:57:38.780Z,-4.90
2022-12-14T22:00:08.773Z,-4.80
2022-12-14T22:02:37.441Z,-4.80
2022-12-14T22:05:06.451Z,-4.70
2022-12-14T22:07:35.544Z,-4.70
2022-12-14T22:10:04.542Z,-4.60
2022-12-14T22:12:33.127Z,-4.50
2022-12-14T22:15:01.621Z,-4.40
2022-12-14T22:17:30.186Z,-4.50
2022-12-14T22:19:59.312Z,-4.30
2022-12-14T22:22:27.887Z,-4.40
2022-12-14T22:24:56.420Z,-4.30
2022-12-14T22:27:25.152Z,-4.30
2022-12-14T22:29:54.466Z,-4.30
2022-12-14T22:32:22.987Z,-4.20
2022-12-14T22:34:51.450Z,-4.30
2022-12-14T22:37:20.027Z,-4.30
2022-12-14T22:39:48.507Z,-4.30
2022-12-14T22:42:17.134Z,-4.40
2022-12-14T22:44:45.705Z,-4.50
2022-12-14T22:47:14.258Z,-4.40
2022-12-14T22:49:43.251Z,-4.70
2022-12-14T22:52:11.798Z,-4.60
2022-12-14T22:54:42.131Z,-4.60
2022-12-14T22:57:16.372Z,-4.50
2022-12-14T22:59:50.767Z,-4.60
2022-12-14T23:02:19.586Z,-4.50
2022-12-14T23:04:50.127Z,-4.60
2022-12-14T23:07:19.351Z,-4.70
2022-12-14T23:10:05.485Z,-4.70
2022-12-14T23:12:52.680Z,-4.80
2022-12-14T23:15:38.980Z,-4.80
2022-12-14T23:18:26.304Z,-4.70
2022-12-14T23:21:13.615Z,-4.80
2022-12-14T23:24:02.563Z,-4.90
2022-12-14T23:26:49.586Z,-5.00
2022-12-14T23:29:36.167Z,-5.00
2022-12-14T23:32:22.755Z,-5.10
2022-12-14T23:35:09.249Z,-5.00
2022-12-14T23:37:55.811Z,-5.00
2022-12-14T23:40:42.251Z,-5.00
2022-12-14T23:43:35.037Z,-5.00
2022-12-14T23:46:24.230Z,-5.00
2022-12-14T23:49:15.595Z,-5.10
2022-12-14T23:51:58.767Z,-5.20
2022-12-14T23:54:45.225Z,-5.20
2022-12-14T23:57:32.077Z,-5.20
